Itutinga, Brazil
Current Conditions -  °F | °C
As of 3:00 PM on Sunday 23 Nov 2014 (Local Time) from SBBQ Reporting Station
Thunderstorm Thunderstorm  
Wind Chill: 70°   Ceiling: 3500
Heat Index: 70°   Visibility: 1.5mi
Dew Point: 64°   Wind: 7mph
Humidity: 83%   Direction: 340°NNW
Pressure: 30.06"   Gusts: NA
Location:  21.3°S, 44.66°W
Report Text: SBBQ 231700Z 34006KT 2500 TSRA FEW030CB BKN035 21/18 Q1018
Loading
Personal Weather Stations






























Interactive Weather Map New forecast layout! Learn more

10-Day Weather Forecast

Advertisements
Track Severe Weather on mobile